createdAt,value
2017-10-12T00:00:55.376Z,91.49
2017-10-12T00:03:21.599Z,91.65
2017-10-12T00:05:47.840Z,91.14
2017-10-12T00:08:14.076Z,91.10
2017-10-12T00:10:40.314Z,90.97
2017-10-12T00:13:06.578Z,91.08
2017-10-12T00:15:32.868Z,90.89
2017-10-12T00:17:59.188Z,90.68
2017-10-12T00:20:25.415Z,90.95
2017-10-12T00:22:51.644Z,90.88
2017-10-12T00:25:17.880Z,90.68
2017-10-12T00:27:44.106Z,90.76
2017-10-12T00:30:10.338Z,90.72
2017-10-12T00:32:36.570Z,90.89
2017-10-12T00:35:02.796Z,90.86
2017-10-12T00:37:29.024Z,90.78
2017-10-12T00:39:55.249Z,90.67
2017-10-12T00:42:21.491Z,90.52
2017-10-12T00:44:47.726Z,90.61
2017-10-12T00:47:13.947Z,90.87
2017-10-12T00:49:40.159Z,90.16
2017-10-12T00:52:06.388Z,89.91
2017-10-12T00:54:32.633Z,90.45
2017-10-12T00:56:58.879Z,90.43
2017-10-12T00:59:25.119Z,90.68
2017-10-12T01:01:51.329Z,90.51
2017-10-12T01:04:17.534Z,90.26
2017-10-12T01:06:43.783Z,91.33
2017-10-12T01:09:10.010Z,91.22
2017-10-12T01:11:36.350Z,91.62
2017-10-12T01:14:02.593Z,91.61
2017-10-12T01:16:28.833Z,91.37
2017-10-12T01:18:55.135Z,91.18
2017-10-12T01:21:21.350Z,90.97
2017-10-12T01:23:47.580Z,91.08
2017-10-12T01:26:13.853Z,91.02
2017-10-12T01:28:40.053Z,91.49
2017-10-12T01:31:06.298Z,91.75
2017-10-12T01:33:32.501Z,91.94
2017-10-12T01:35:58.735Z,92.15
2017-10-12T01:38:24.987Z,92.01
2017-10-12T01:40:51.192Z,91.86
2017-10-12T01:43:17.448Z,91.81
2017-10-12T01:45:43.657Z,91.71
2017-10-12T01:48:09.911Z,91.57
2017-10-12T01:50:36.115Z,91.59
2017-10-12T01:53:02.356Z,91.21
2017-10-12T01:55:28.583Z,90.83
2017-10-12T01:57:54.822Z,90.79
2017-10-12T02:00:21.149Z,90.96
2017-10-12T02:02:47.368Z,90.60
2017-10-12T02:05:13.612Z,90.54
2017-10-12T02:07:39.820Z,90.20
2017-10-12T02:10:06.061Z,89.97
2017-10-12T02:12:32.302Z,89.63
2017-10-12T02:14:58.520Z,89.54
2017-10-12T02:17:24.755Z,90.51
2017-10-12T02:19:50.982Z,90.96
2017-10-12T02:22:17.305Z,90.45
2017-10-12T02:24:43.546Z,90.32
2017-10-12T02:27:09.773Z,90.48
2017-10-12T02:29:36.110Z,90.23
2017-10-12T02:32:02.328Z,90.22
2017-10-12T02:34:28.606Z,90.22
2017-10-12T02:36:54.899Z,90.39
2017-10-12T02:39:21.230Z,90.79
2017-10-12T02:41:47.447Z,90.89
2017-10-12T02:44:13.685Z,90.68
2017-10-12T02:46:39.906Z,90.71
2017-10-12T02:49:06.137Z,90.83
2017-10-12T02:51:32.492Z,91.14
2017-10-12T02:53:58.698Z,91.56
2017-10-12T02:56:24.933Z,91.92
2017-10-12T02:58:51.273Z,91.77
2017-10-12T03:01:17.505Z,91.79
2017-10-12T03:03:43.863Z,91.79
2017-10-12T03:06:10.192Z,91.76
2017-10-12T03:08:36.370Z,91.57
2017-10-12T03:11:02.630Z,91.10
2017-10-12T03:13:28.845Z,91.40
2017-10-12T03:15:55.074Z,91.41
2017-10-12T03:18:21.300Z,91.25
2017-10-12T03:20:47.536Z,91.16
2017-10-12T03:23:13.786Z,91.15
2017-10-12T03:25:40.011Z,91.13
2017-10-12T03:28:06.240Z,91.41
2017-10-12T03:30:32.455Z,91.77
2017-10-12T03:32:58.695Z,91.51
2017-10-12T03:35:24.925Z,91.51
2017-10-12T03:37:51.125Z,91.18
2017-10-12T03:40:17.373Z,91.42
2017-10-12T03:42:43.619Z,91.45
2017-10-12T03:45:09.846Z,91.42
2017-10-12T03:47:36.079Z,91.47
2017-10-12T03:50:02.405Z,91.44
2017-10-12T03:52:28.628Z,91.36
2017-10-12T03:54:54.874Z,91.85
2017-10-12T03:57:21.204Z,91.54
2017-10-12T03:59:47.439Z,91.49
2017-10-12T04:02:13.658Z,91.34
2017-10-12T04:04:39.889Z,91.26
2017-10-12T04:07:06.126Z,91.25
2017-10-12T04:09:32.345Z,91.62
2017-10-12T04:11:58.560Z,92.10
2017-10-12T04:14:24.814Z,91.73
2017-10-12T04:16:51.036Z,91.98
2017-10-12T04:19:17.276Z,92.31
2017-10-12T04:21:43.514Z,92.38
2017-10-12T04:24:09.729Z,92.18
2017-10-12T04:26:36.063Z,92.01
2017-10-12T04:29:02.327Z,92.04
2017-10-12T04:31:28.623Z,92.14
2017-10-12T04:33:54.852Z,92.55
2017-10-12T04:36:21.069Z,92.69
2017-10-12T04:38:47.308Z,92.52
2017-10-12T04:41:13.659Z,92.49
2017-10-12T04:43:40.009Z,92.37
2017-10-12T04:46:06.312Z,92.40
2017-10-12T04:48:32.548Z,92.21
2017-10-12T04:50:58.764Z,92.15
2017-10-12T04:53:24.994Z,91.68
2017-10-12T04:55:51.214Z,91.18
2017-10-12T04:58:17.463Z,91.14
2017-10-12T05:00:43.691Z,91.33
2017-10-12T05:03:09.917Z,91.50
2017-10-12T05:05:36.131Z,91.79
2017-10-12T05:08:02.370Z,91.96
2017-10-12T05:10:28.611Z,92.19
2017-10-12T05:12:54.845Z,91.58
2017-10-12T05:15:21.069Z,91.11
2017-10-12T05:17:47.275Z,89.83
2017-10-12T05:20:13.538Z,85.54
2017-10-12T05:22:39.830Z,84.33
2017-10-12T05:25:06.088Z,83.87
2017-10-12T05:27:32.313Z,86.08
2017-10-12T05:29:58.550Z,87.41
2017-10-12T05:32:24.777Z,86.77
2017-10-12T05:34:51.011Z,80.49
2017-10-12T05:37:17.247Z,80.85
2017-10-12T05:39:43.560Z,74.46
2017-10-12T05:42:09.780Z,74.61
2017-10-12T05:44:36.023Z,71.62
2017-10-12T05:47:02.365Z,68.86
2017-10-12T05:49:28.606Z,67.34
2017-10-12T05:51:54.935Z,64.99
2017-10-12T05:54:21.148Z,60.94
2017-10-12T05:56:47.396Z,60.04
2017-10-12T05:59:13.729Z,54.74
2017-10-12T06:01:40.075Z,57.67
2017-10-12T06:04:06.445Z,57.57
2017-10-12T06:06:32.778Z,56.35
2017-10-12T06:08:59.035Z,53.88
2017-10-12T06:11:25.251Z,52.59
2017-10-12T06:13:51.487Z,48.86
2017-10-12T06:16:17.834Z,47.96
2017-10-12T06:18:44.049Z,51.07
2017-10-12T06:21:10.283Z,53.32
2017-10-12T06:23:36.510Z,54.14
2017-10-12T06:26:02.727Z,53.69
2017-10-12T06:28:28.973Z,53.08
2017-10-12T06:30:55.216Z,49.49
2017-10-12T06:33:21.460Z,49.86
2017-10-12T06:35:48.170Z,50.91
2017-10-12T06:38:14.502Z,50.97
2017-10-12T06:40:40.749Z,50.67
2017-10-12T06:43:06.962Z,49.03
2017-10-12T06:45:33.165Z,49.21
2017-10-12T06:47:59.376Z,48.85
2017-10-12T06:50:25.574Z,47.13
2017-10-12T06:52:51.781Z,51.10
2017-10-12T06:55:17.991Z,50.53
2017-10-12T06:57:44.187Z,51.29
2017-10-12T07:00:10.394Z,50.77
2017-10-12T07:02:36.589Z,49.90
2017-10-12T07:05:02.825Z,50.35
2017-10-12T07:07:29.025Z,48.79
2017-10-12T07:09:55.212Z,48.59
2017-10-12T07:12:21.443Z,48.12
2017-10-12T07:14:47.631Z,47.76
2017-10-12T07:17:13.839Z,49.64
2017-10-12T07:19:40.054Z,47.98
2017-10-12T07:22:06.253Z,48.86
2017-10-12T07:24:32.451Z,49.12
2017-10-12T07:26:58.651Z,49.29
2017-10-12T07:29:24.853Z,48.99
2017-10-12T07:31:51.050Z,49.51
2017-10-12T07:34:17.265Z,48.61
2017-10-12T07:36:43.508Z,47.15
2017-10-12T07:39:09.697Z,48.40
2017-10-12T07:41:35.918Z,46.00
2017-10-12T07:44:02.123Z,45.34
2017-10-12T07:46:28.353Z,44.49
2017-10-12T07:48:54.580Z,43.87
2017-10-12T07:51:20.810Z,44.13
2017-10-12T07:53:47.025Z,45.53
2017-10-12T07:56:13.218Z,45.54
2017-10-12T07:58:39.428Z,46.21
2017-10-12T08:01:05.624Z,45.54
2017-10-12T08:03:31.844Z,44.85
2017-10-12T08:05:58.061Z,43.05
2017-10-12T08:08:24.281Z,42.10
2017-10-12T08:10:50.481Z,42.08
2017-10-12T08:13:16.693Z,42.40
2017-10-12T08:15:42.940Z,41.96
2017-10-12T08:18:09.156Z,40.96
2017-10-12T08:20:35.372Z,40.39
2017-10-12T08:23:01.586Z,38.98
2017-10-12T08:25:27.836Z,38.64
2017-10-12T08:27:54.027Z,37.84
2017-10-12T08:30:20.242Z,37.31
2017-10-12T08:32:46.429Z,36.17
2017-10-12T08:35:12.649Z,37.38
2017-10-12T08:37:38.845Z,37.51
2017-10-12T08:40:05.050Z,37.81
2017-10-12T08:42:31.263Z,36.38
2017-10-12T08:44:57.479Z,37.02
2017-10-12T08:47:23.695Z,37.68
2017-10-12T08:49:49.892Z,36.26
2017-10-12T08:52:16.089Z,35.78
2017-10-12T08:54:42.297Z,35.35
2017-10-12T08:57:08.518Z,33.25
2017-10-12T08:59:34.711Z,35.01
2017-10-12T09:02:00.897Z,33.75
2017-10-12T09:04:27.104Z,32.85
2017-10-12T09:06:53.309Z,31.54
2017-10-12T09:09:19.513Z,31.88
2017-10-12T09:11:45.714Z,31.17
2017-10-12T09:14:11.920Z,32.76
2017-10-12T09:16:38.156Z,31.47
2017-10-12T09:19:04.355Z,31.77
2017-10-12T09:21:30.561Z,30.16
2017-10-12T09:23:56.765Z,30.19
2017-10-12T09:26:22.973Z,30.69
2017-10-12T09:28:49.183Z,32.69
2017-10-12T09:31:15.499Z,29.96
2017-10-12T09:33:41.710Z,28.93
2017-10-12T09:36:07.914Z,28.52
2017-10-12T09:38:34.136Z,28.92
2017-10-12T09:41:00.333Z,31.29
2017-10-12T09:43:26.577Z,28.79
2017-10-12T09:45:52.779Z,28.04
2017-10-12T09:48:19.071Z,28.17
2017-10-12T09:50:45.267Z,27.75
2017-10-12T09:53:11.469Z,28.58
2017-10-12T09:55:37.686Z,27.96
2017-10-12T09:58:03.867Z,28.86
2017-10-12T10:00:30.070Z,28.93
2017-10-12T10:02:56.252Z,30.59
2017-10-12T10:05:22.457Z,29.49
2017-10-12T10:07:48.690Z,29.35
2017-10-12T10:10:14.880Z,27.93
2017-10-12T10:12:41.095Z,28.29
2017-10-12T10:15:07.331Z,29.04
2017-10-12T10:17:33.534Z,27.92
2017-10-12T10:19:59.755Z,27.89
2017-10-12T10:22:25.964Z,28.14
2017-10-12T10:24:52.189Z,28.85
2017-10-12T10:27:18.464Z,27.94
2017-10-12T10:29:44.674Z,29.37
2017-10-12T10:32:10.863Z,27.16
2017-10-12T10:34:39.063Z,26.72
2017-10-12T10:37:05.268Z,27.73
2017-10-12T10:39:31.473Z,28.38
2017-10-12T10:41:57.688Z,26.97
2017-10-12T10:44:24.542Z,27.67
2017-10-12T10:46:50.730Z,27.29
2017-10-12T10:49:16.935Z,27.92
2017-10-12T10:51:43.155Z,27.87
2017-10-12T10:54:09.367Z,28.28
2017-10-12T10:56:35.583Z,31.20
2017-10-12T10:59:01.798Z,28.30
2017-10-12T11:01:27.997Z,27.82
2017-10-12T11:03:54.205Z,28.97
2017-10-12T11:06:20.398Z,29.28
2017-10-12T11:08:46.623Z,29.58
2017-10-12T11:11:12.836Z,28.17
2017-10-12T11:13:39.044Z,28.77
2017-10-12T11:16:05.242Z,30.35
2017-10-12T11:18:31.474Z,30.89
2017-10-12T11:20:57.691Z,29.91
2017-10-12T11:23:23.874Z,29.76
2017-10-12T11:25:50.061Z,31.04
2017-10-12T11:28:16.264Z,30.51
2017-10-12T11:30:42.466Z,30.10
2017-10-12T11:33:08.742Z,28.43
2017-10-12T11:35:34.954Z,29.10
2017-10-12T11:38:01.166Z,29.13
2017-10-12T11:40:27.364Z,28.47
2017-10-12T11:42:53.572Z,28.26
2017-10-12T11:45:19.767Z,28.40
2017-10-12T11:47:45.978Z,28.83
2017-10-12T11:50:12.206Z,28.26
2017-10-12T11:52:38.419Z,27.36
2017-10-12T11:55:04.616Z,27.21
2017-10-12T11:57:30.803Z,26.81
2017-10-12T11:59:57.009Z,26.50
2017-10-12T12:02:23.218Z,27.77
2017-10-12T12:04:49.430Z,25.92
2017-10-12T12:07:15.638Z,25.76
2017-10-12T12:09:41.852Z,25.79
2017-10-12T12:12:08.061Z,25.64
2017-10-12T12:14:34.256Z,25.56
2017-10-12T12:17:00.449Z,25.81
2017-10-12T12:19:26.670Z,25.22
2017-10-12T12:21:52.873Z,24.01
2017-10-12T12:24:19.064Z,25.16
2017-10-12T12:26:45.284Z,25.83
2017-10-12T12:29:11.492Z,26.99
2017-10-12T12:31:37.695Z,26.54
2017-10-12T12:34:03.889Z,26.06
2017-10-12T12:36:30.105Z,25.72
2017-10-12T12:38:56.352Z,24.57
2017-10-12T12:41:22.560Z,27.01
2017-10-12T12:43:48.772Z,27.78
2017-10-12T12:46:14.984Z,27.13
2017-10-12T12:48:41.193Z,26.76
2017-10-12T12:51:07.397Z,26.27
2017-10-12T12:53:33.598Z,25.72
2017-10-12T12:55:59.810Z,24.92
2017-10-12T12:58:26.019Z,25.44
2017-10-12T13:00:52.233Z,23.80
2017-10-12T13:03:18.452Z,24.21
2017-10-12T13:05:44.661Z,24.29
2017-10-12T13:08:10.878Z,24.74
2017-10-12T13:10:37.074Z,25.99
2017-10-12T13:13:03.281Z,26.64
2017-10-12T13:15:29.504Z,27.20
2017-10-12T13:17:55.709Z,27.25
2017-10-12T13:20:23.069Z,26.79
2017-10-12T13:22:49.276Z,27.78
2017-10-12T13:25:15.498Z,28.78
2017-10-12T13:27:41.697Z,27.82
2017-10-12T13:30:07.920Z,28.37
2017-10-12T13:32:34.139Z,28.22
2017-10-12T13:35:00.336Z,28.71
2017-10-12T13:37:26.550Z,28.37
2017-10-12T13:39:52.742Z,28.63
2017-10-12T13:42:18.943Z,28.19
2017-10-12T13:44:45.155Z,28.82
2017-10-12T13:47:11.359Z,28.10
2017-10-12T13:49:37.628Z,28.13
2017-10-12T13:52:03.854Z,27.91
2017-10-12T13:54:30.045Z,27.93
2017-10-12T13:56:56.271Z,27.30
2017-10-12T13:59:22.487Z,27.01
2017-10-12T14:01:48.688Z,26.90
2017-10-12T14:04:14.933Z,26.90
2017-10-12T14:06:41.121Z,27.11
2017-10-12T14:09:07.334Z,26.52
2017-10-12T14:11:33.550Z,26.99
2017-10-12T14:13:59.751Z,28.35
2017-10-12T14:16:25.975Z,26.58
2017-10-12T14:18:52.216Z,27.14
2017-10-12T14:21:18.433Z,26.62
2017-10-12T14:23:44.641Z,27.62
2017-10-12T14:26:10.893Z,27.67
2017-10-12T14:28:37.111Z,27.60
2017-10-12T14:31:03.332Z,26.66
2017-10-12T14:33:29.580Z,25.77
2017-10-12T14:35:55.781Z,27.11
2017-10-12T14:38:21.976Z,27.39
2017-10-12T14:40:48.213Z,27.09
2017-10-12T14:43:14.415Z,27.34
2017-10-12T14:45:40.626Z,26.15
2017-10-12T14:48:06.851Z,26.78
2017-10-12T14:50:33.059Z,27.35
2017-10-12T14:52:59.261Z,26.66
2017-10-12T14:55:25.478Z,25.80
2017-10-12T14:57:51.717Z,26.98
2017-10-12T15:00:17.918Z,27.44
2017-10-12T15:02:44.170Z,27.65
2017-10-12T15:05:10.400Z,27.66
2017-10-12T15:07:36.593Z,28.23
2017-10-12T15:10:02.903Z,29.02
2017-10-12T15:12:29.129Z,29.99
2017-10-12T15:14:55.325Z,30.42
2017-10-12T15:17:21.545Z,31.22
2017-10-12T15:19:47.751Z,33.16
2017-10-12T15:22:14.008Z,34.60
2017-10-12T15:24:40.213Z,36.71
2017-10-12T15:27:06.529Z,37.92
2017-10-12T15:29:32.745Z,38.17
2017-10-12T15:31:58.962Z,41.76
2017-10-12T15:34:25.218Z,42.33
2017-10-12T15:36:51.435Z,43.65
2017-10-12T15:39:17.667Z,45.40
2017-10-12T15:41:43.908Z,46.95
2017-10-12T15:44:10.165Z,48.55
2017-10-12T15:46:36.396Z,49.10
2017-10-12T15:49:02.607Z,50.51
2017-10-12T15:51:28.806Z,51.90
2017-10-12T15:53:55.047Z,51.77
2017-10-12T15:56:21.264Z,52.26
2017-10-12T15:58:47.501Z,53.62
2017-10-12T16:01:13.697Z,54.71
2017-10-12T16:03:39.918Z,54.88
2017-10-12T16:06:06.123Z,54.76
2017-10-12T16:08:32.351Z,55.51
2017-10-12T16:10:58.584Z,55.49
2017-10-12T16:13:24.794Z,56.97
2017-10-12T16:15:50.962Z,56.49
2017-10-12T16:18:17.942Z,57.66
2017-10-12T16:20:44.183Z,57.89
2017-10-12T16:23:10.490Z,58.29
2017-10-12T16:25:36.717Z,59.06
2017-10-12T16:28:02.987Z,58.95
2017-10-12T16:30:29.172Z,58.72
2017-10-12T16:33:10.342Z,59.47
2017-10-12T16:35:21.762Z,59.01
2017-10-12T16:37:48.000Z,59.49
2017-10-12T16:40:14.633Z,59.44
2017-10-12T16:45:07.152Z,59.61
2017-10-12T16:47:33.426Z,59.15
2017-10-12T16:49:59.674Z,61.51
2017-10-12T16:52:26.019Z,61.21
2017-10-12T16:54:52.311Z,60.31
2017-10-12T16:57:18.563Z,61.49
2017-10-12T16:59:44.834Z,61.96
2017-10-12T17:02:11.353Z,61.79
2017-10-12T17:04:37.646Z,62.47
2017-10-12T17:07:03.926Z,63.52
2017-10-12T17:09:30.157Z,64.62
2017-10-12T17:11:56.502Z,63.90
2017-10-12T17:14:22.828Z,64.22
2017-10-12T17:16:49.101Z,65.03
2017-10-12T17:19:15.526Z,65.20
2017-10-12T17:21:42.185Z,66.72
2017-10-12T17:24:08.450Z,66.42
2017-10-12T17:26:34.778Z,66.04
2017-10-12T17:29:01.010Z,66.10
2017-10-12T17:31:27.293Z,68.08
2017-10-12T17:33:53.555Z,68.53
2017-10-12T17:36:19.825Z,68.01
2017-10-12T17:38:46.094Z,68.29
2017-10-12T17:41:12.410Z,68.14
2017-10-12T17:43:38.665Z,68.34
2017-10-12T17:46:04.964Z,68.46
2017-10-12T17:48:31.233Z,68.66
2017-10-12T17:50:57.502Z,68.74
2017-10-12T17:53:23.806Z,68.95
2017-10-12T17:55:50.071Z,69.33
2017-10-12T17:58:16.555Z,69.43
2017-10-12T18:00:42.785Z,69.52
2017-10-12T18:03:09.260Z,70.81
2017-10-12T18:05:35.533Z,71.16
2017-10-12T18:08:01.762Z,71.10
2017-10-12T18:10:28.006Z,71.58
2017-10-12T18:12:54.247Z,73.72
2017-10-12T18:15:20.494Z,74.43
2017-10-12T18:17:46.924Z,74.88
2017-10-12T18:20:13.321Z,74.79
2017-10-12T18:22:39.798Z,75.71
2017-10-12T18:25:06.355Z,75.19
2017-10-12T18:27:32.909Z,75.58
2017-10-12T18:29:59.545Z,75.90
2017-10-12T18:32:26.083Z,76.83
2017-10-12T18:34:52.625Z,76.57
2017-10-12T18:37:19.243Z,77.37
2017-10-12T18:42:13.302Z,77.96
2017-10-12T18:44:39.921Z,77.42
2017-10-12T18:47:06.413Z,78.65
2017-10-12T18:49:33.185Z,79.08
2017-10-12T18:52:07.615Z,78.59
2017-10-12T18:54:34.365Z,78.38
2017-10-12T18:57:00.915Z,79.59
2017-10-12T18:59:27.460Z,80.33
2017-10-12T19:01:53.912Z,80.15
2017-10-12T19:04:20.648Z,80.52
2017-10-12T19:06:47.275Z,80.22
2017-10-12T19:09:14.628Z,80.38
2017-10-12T19:11:41.368Z,80.39
2017-10-12T19:14:08.059Z,80.06
2017-10-12T19:16:34.629Z,80.93
2017-10-12T19:19:01.160Z,80.63
2017-10-12T19:21:27.897Z,80.77
2017-10-12T19:23:54.363Z,81.21
2017-10-12T19:26:21.018Z,80.63
2017-10-12T19:28:48.519Z,80.92
2017-10-12T19:31:15.003Z,80.30
2017-10-12T19:33:41.508Z,80.59
2017-10-12T19:36:08.742Z,81.23
2017-10-12T19:38:35.214Z,82.32
2017-10-12T19:43:28.419Z,81.72
2017-10-12T19:45:55.630Z,81.66
2017-10-12T19:48:22.010Z,82.01
2017-10-12T19:50:48.446Z,82.19
2017-10-12T19:53:15.895Z,82.55
2017-10-12T19:55:42.268Z,83.01
2017-10-12T19:58:08.767Z,83.27
2017-10-12T20:00:35.224Z,82.51
2017-10-12T20:03:01.726Z,82.65
2017-10-12T20:05:28.049Z,83.41
2017-10-12T20:07:54.379Z,83.46
2017-10-12T20:10:22.879Z,83.23
2017-10-12T20:12:49.209Z,83.09
2017-10-12T20:15:15.552Z,83.71
2017-10-12T20:17:41.944Z,84.45
2017-10-12T20:20:08.813Z,85.08
2017-10-12T20:22:35.079Z,84.80
2017-10-12T20:25:01.392Z,84.82
2017-10-12T20:27:27.633Z,85.10
2017-10-12T20:29:53.907Z,85.48
2017-10-12T20:32:20.193Z,85.80
2017-10-12T20:34:46.413Z,85.52
2017-10-12T20:37:12.638Z,85.37
2017-10-12T20:39:40.655Z,85.59
2017-10-12T20:42:14.002Z,86.48
2017-10-12T20:44:34.408Z,86.92
2017-10-12T20:47:00.679Z,86.45
2017-10-12T20:49:26.885Z,86.45
2017-10-12T20:51:53.121Z,86.41
2017-10-12T20:54:20.062Z,86.27
2017-10-12T20:56:46.360Z,85.96
2017-10-12T20:59:12.741Z,87.13
2017-10-12T21:01:39.022Z,87.26
2017-10-12T21:04:06.177Z,87.09
2017-10-12T21:06:33.839Z,87.04
2017-10-12T21:09:04.381Z,87.00
2017-10-12T21:11:30.654Z,86.84
2017-10-12T21:13:59.210Z,86.73
2017-10-12T21:16:25.467Z,87.63
2017-10-12T21:18:51.680Z,87.50
2017-10-12T21:21:18.885Z,87.04
2017-10-12T21:23:45.152Z,87.63
2017-10-12T21:26:12.098Z,87.65
2017-10-12T21:28:38.387Z,87.78
2017-10-12T21:31:04.638Z,87.42
2017-10-12T21:33:30.995Z,87.68
2017-10-12T21:35:57.279Z,87.97
2017-10-12T21:38:23.517Z,87.84
2017-10-12T21:40:49.741Z,88.14
2017-10-12T21:43:15.970Z,88.44
2017-10-12T21:45:42.250Z,87.76
2017-10-12T21:48:08.499Z,87.28
2017-10-12T21:50:34.808Z,87.28
2017-10-12T21:53:02.215Z,87.43
2017-10-12T21:55:28.542Z,87.39
2017-10-12T21:57:54.836Z,87.13
2017-10-12T22:00:21.249Z,87.58
2017-10-12T22:02:47.508Z,87.81
2017-10-12T22:05:13.839Z,88.46
2017-10-12T22:07:41.071Z,88.60
2017-10-12T22:10:07.372Z,88.77
2017-10-12T22:12:33.659Z,89.35
2017-10-12T22:15:01.124Z,89.10
2017-10-12T22:17:27.370Z,88.86
2017-10-12T22:19:53.590Z,88.87
2017-10-12T22:22:19.867Z,88.71
2017-10-12T22:24:46.103Z,88.35
2017-10-12T22:27:12.303Z,88.58
2017-10-12T22:29:38.508Z,89.13
2017-10-12T22:32:04.724Z,88.80
2017-10-12T22:34:30.973Z,88.45
2017-10-12T22:36:57.207Z,88.21
2017-10-12T22:39:23.406Z,88.25
2017-10-12T22:41:49.613Z,87.98
2017-10-12T22:44:15.837Z,87.75
2017-10-12T22:46:42.083Z,88.52
2017-10-12T22:49:08.292Z,89.15
2017-10-12T22:51:34.490Z,89.43
2017-10-12T22:54:00.691Z,89.32
2017-10-12T22:56:26.889Z,89.01
2017-10-12T22:58:53.127Z,88.86
2017-10-12T23:01:19.327Z,88.17
2017-10-12T23:03:45.525Z,88.49
2017-10-12T23:06:11.754Z,88.64
2017-10-12T23:08:37.951Z,88.49
2017-10-12T23:11:04.195Z,88.63
2017-10-12T23:13:30.410Z,88.46
2017-10-12T23:15:56.612Z,88.29
2017-10-12T23:18:22.859Z,88.33
2017-10-12T23:20:49.082Z,88.28
2017-10-12T23:23:15.292Z,88.67
2017-10-12T23:25:41.518Z,88.93
2017-10-12T23:28:07.724Z,88.35
2017-10-12T23:30:33.955Z,87.96
2017-10-12T23:33:00.173Z,87.73
2017-10-12T23:42:09.917Z,87.81
2017-10-12T23:44:36.182Z,88.07
2017-10-12T23:47:02.404Z,88.48
2017-10-12T23:49:28.624Z,88.65
2017-10-12T23:51:55.484Z,88.55
2017-10-12T23:54:21.736Z,88.40
2017-10-12T23:56:47.974Z,88.52
2017-10-12T23:59:14.166Z,89.30
